Time;durP1;ratioP1;P1;durP2;ratioP2;P2;SDS_P1;SDS_P2;PMS_P1;PMS_P2;Temp;Humidity;BMP_temperature;BMP_pressure;BME280_temperature;BME280_humidity;BME280_pressure;Samples;Min_cycle;Max_cycle;Signal;HPM_P1;HPM_P2
2024/01/22 00:01:16;;;;;;;10.43;8.20;;;5.90;99.90;;;;;;5095019;28;20402;-71
2024/01/22 00:03:42;;;;;;;6.10;4.97;;;5.80;99.90;;;;;;5094067;28;20178;-73
2024/01/22 00:06:07;;;;;;;7.40;5.67;;;5.70;99.90;;;;;;5094842;28;20188;-72
2024/01/22 00:08:33;;;;;;;12.90;7.40;;;5.70;99.90;;;;;;5095001;28;20813;-79
2024/01/22 00:10:59;;;;;;;12.60;7.40;;;5.60;99.90;;;;;;5094920;28;20173;-74
2024/01/22 00:13:25;;;;;;;14.07;7.43;;;5.50;99.90;;;;;;5093929;28;20170;-70
2024/01/22 00:15:50;;;;;;;9.40;7.50;;;5.50;99.90;;;;;;5094738;28;20726;-79
2024/01/22 00:18:16;;;;;;;7.63;6.20;;;5.40;99.90;;;;;;5094653;28;20180;-72
2024/01/22 00:20:42;;;;;;;7.90;7.13;;;5.40;99.90;;;;;;5094663;28;20256;-80
2024/01/22 00:23:07;;;;;;;9.50;7.30;;;5.40;1.00;;;;;;5093874;28;20277;-80
2024/01/22 00:25:33;;;;;;;11.30;8.47;;;5.40;1.00;;;;;;5094569;28;20195;-70
2024/01/22 00:27:59;;;;;;;15.47;7.77;;;5.30;1.00;;;;;;5076312;28;20618;-71
2024/01/22 00:30:25;;;;;;;13.80;7.60;;;5.30;1.00;;;;;;5094481;28;20408;-71
2024/01/22 00:32:51;;;;;;;11.23;7.53;;;5.30;1.00;;;;;;5093615;28;20168;-78
2024/01/22 00:35:17;;;;;;;12.93;8.20;;;5.30;1.00;;;;;;5094405;28;20195;-78
2024/01/22 00:37:43;;;;;;;8.13;6.93;;;5.30;1.00;;;;;;5094383;28;20411;-78
2024/01/22 00:40:09;;;;;;;13.07;8.20;;;5.30;1.00;;;;;;5093986;28;20454;-71
2024/01/22 00:42:35;;;;;;;13.63;7.90;;;5.30;1.00;;;;;;5094227;28;20168;-79
2024/01/22 00:45:01;;;;;;;10.90;7.77;;;5.30;1.00;;;;;;5093321;28;20974;-74
2024/01/22 00:47:27;;;;;;;9.90;7.33;;;5.30;1.00;;;;;;5094226;28;20248;-78
2024/01/22 00:49:53;;;;;;;10.07;7.70;;;5.30;1.00;;;;;;5094202;28;20428;-79
2024/01/22 00:52:19;;;;;;;10.20;7.60;;;5.30;1.00;;;;;;5094100;28;20622;-71
2024/01/22 00:54:44;;;;;;;13.73;7.30;;;5.40;1.00;;;;;;5093111;28;20196;-71
2024/01/22 00:57:10;;;;;;;8.37;6.07;;;5.40;1.00;;;;;;5094131;28;20615;-78
2024/01/22 00:59:36;;;;;;;10.60;5.60;;;5.40;1.00;;;;;;5075746;28;20608;-75
2024/01/22 01:02:03;;;;;;;16.33;7.90;;;5.50;1.00;;;;;;5094104;28;20223;-72
2024/01/22 01:04:29;;;;;;;8.40;6.10;;;5.50;1.00;;;;;;5092758;28;20443;-79
2024/01/22 01:06:54;;;;;;;15.53;7.77;;;5.50;1.00;;;;;;5075975;28;20814;-72
2024/01/22 01:09:20;;;;;;;7.63;6.90;;;5.50;1.00;;;;;;5076013;28;20228;-80
2024/01/22 01:11:45;;;;;;;9.03;6.40;;;5.50;1.00;;;;;;5093806;28;20169;-78
2024/01/22 01:14:11;;;;;;;7.47;6.43;;;5.60;1.00;;;;;;5092832;28;20201;-72
2024/01/22 01:16:37;;;;;;;10.03;6.20;;;5.60;1.00;;;;;;5075542;28;20173;-72
2024/01/22 01:19:02;;;;;;;12.33;6.17;;;5.60;1.00;;;;;;5075786;28;20525;-73
2024/01/22 01:21:28;;;;;;;5.50;5.10;;;5.60;1.00;;;;;;5093661;28;20176;-73
2024/01/22 01:23:54;;;;;;;6.33;5.73;;;5.70;1.00;;;;;;5074816;28;20185;-72
2024/01/22 01:26:19;;;;;;;9.10;6.63;;;5.70;1.00;;;;;;5093656;28;20165;-72
2024/01/22 01:28:45;;;;;;;15.83;8.10;;;5.70;1.00;;;;;;5093467;28;20164;-77
2024/01/22 01:31:11;;;;;;;5.63;5.07;;;5.70;1.00;;;;;;5093574;28;20178;-78
2024/01/22 01:33:36;;;;;;;9.70;6.03;;;5.70;1.00;;;;;;5092709;28;20224;-78
2024/01/22 01:36:02;;;;;;;8.30;6.67;;;5.70;1.00;;;;;;5093439;28;20550;-70
2024/01/22 01:38:28;;;;;;;7.97;6.40;;;5.80;1.00;;;;;;5093491;28;20168;-71
2024/01/22 01:40:53;;;;;;;7.70;6.13;;;5.80;1.00;;;;;;5093297;28;20459;-70
2024/01/22 01:43:19;;;;;;;8.93;6.63;;;5.80;1.00;;;;;;5092589;28;20177;-76
2024/01/22 01:45:45;;;;;;;10.67;9.67;;;5.80;1.00;;;;;;5093233;28;20185;-72
2024/01/22 01:48:12;;;;;;;9.13;7.17;;;5.90;1.00;;;;;;5093404;28;20168;-78
2024/01/22 01:50:39;;;;;;;6.20;5.57;;;5.90;1.00;;;;;;5093324;28;20180;-73
2024/01/22 01:53:05;;;;;;;9.10;5.90;;;6.00;1.00;;;;;;5078130;28;20907;-77
2024/01/22 01:55:31;;;;;;;7.87;6.03;;;6.00;1.00;;;;;;5097458;28;20434;-78
2024/01/22 01:57:59;;;;;;;8.13;5.50;;;6.00;1.00;;;;;;5079272;28;20552;-73
2024/01/22 02:00:25;;;;;;;11.80;6.90;;;6.10;1.00;;;;;;5097312;28;20454;-72
2024/01/22 02:02:51;;;;;;;5.90;5.40;;;6.10;99.90;;;;;;5096384;28;20388;-74
2024/01/22 02:05:17;;;;;;;6.50;5.67;;;6.10;99.90;;;;;;5097150;28;20211;-78
2024/01/22 02:07:43;;;;;;;9.33;6.17;;;6.10;99.90;;;;;;5097362;28;20399;-71
2024/01/22 02:10:12;;;;;;;11.70;6.80;;;6.10;99.90;;;;;;5097245;28;20460;-77
2024/01/22 02:12:39;;;;;;;7.07;6.40;;;6.10;99.90;;;;;;5097048;28;20583;-77
2024/01/22 02:15:08;;;;;;;7.00;6.33;;;6.10;99.90;;;;;;5078314;28;20529;-72
2024/01/22 02:17:34;;;;;;;7.93;6.80;;;6.10;99.90;;;;;;5097096;28;20445;-74
2024/01/22 02:19:59;;;;;;;7.27;6.27;;;6.10;99.90;;;;;;5078775;28;20475;-71
2024/01/22 02:22:25;;;;;;;7.03;5.77;;;6.10;99.90;;;;;;5097042;28;20260;-79
2024/01/22 02:24:51;;;;;;;10.40;6.60;;;6.10;99.90;;;;;;5096021;28;20184;-77
2024/01/22 02:27:17;;;;;;;8.87;6.43;;;6.10;99.90;;;;;;5096821;28;20572;-70
2024/01/22 02:29:43;;;;;;;7.00;5.70;;;6.00;99.90;;;;;;5096960;28;20674;-77
2024/01/22 02:32:08;;;;;;;7.03;6.33;;;6.00;1.00;;;;;;5096931;28;20493;-77
2024/01/22 02:34:34;;;;;;;10.80;6.20;;;5.90;1.00;;;;;;5095782;28;20661;-71
2024/01/22 02:37:00;;;;;;;10.87;7.90;;;6.00;1.00;;;;;;5096694;28;20183;-72
2024/01/22 02:39:27;;;;;;;10.00;7.10;;;5.90;1.00;;;;;;5096531;28;20226;-78
2024/01/22 02:41:53;;;;;;;7.20;4.20;;;5.90;1.00;;;;;;5096591;28;20800;-81
2024/01/22 02:44:18;;;;;;;10.23;6.10;;;5.90;1.00;;;;;;5077693;28;20435;-78
2024/01/22 02:46:44;;;;;;;8.83;7.03;;;5.90;1.00;;;;;;5096716;28;20172;-73
2024/01/22 02:49:10;;;;;;;9.23;5.83;;;5.90;1.00;;;;;;5096536;28;20652;-78
2024/01/22 02:51:36;;;;;;;16.47;8.33;;;5.90;1.00;;;;;;5096434;28;20639;-72
2024/01/22 02:54:03;;;;;;;9.53;6.47;;;5.90;1.00;;;;;;5095475;28;20598;-72
2024/01/22 02:56:29;;;;;;;5.93;5.33;;;5.80;1.00;;;;;;5078213;28;20218;-79
2024/01/22 02:58:55;;;;;;;10.37;7.27;;;5.80;1.00;;;;;;5096368;28;20410;-79
2024/01/22 03:01:21;;;;;;;8.17;5.90;;;5.80;1.00;;;;;;5096204;28;20175;-80
2024/01/22 03:03:46;;;;;;;6.47;5.87;;;5.80;1.00;;;;;;5095108;28;20391;-73
2024/01/22 03:06:13;;;;;;;13.23;6.10;;;5.80;1.00;;;;;;5096155;28;20181;-70
2024/01/22 03:08:38;;;;;;;5.80;5.37;;;5.80;1.00;;;;;;5096140;28;20566;-72
2024/01/22 03:11:04;;;;;;;10.07;6.37;;;5.70;1.00;;;;;;5096067;28;20418;-79
2024/01/22 03:13:30;;;;;;;14.67;5.50;;;5.80;1.00;;;;;;5095072;28;20169;-79
2024/01/22 03:15:56;;;;;;;9.93;5.03;;;5.80;1.00;;;;;;5095906;28;20199;-79
2024/01/22 03:18:21;;;;;;;5.50;5.00;;;5.80;1.00;;;;;;5095680;28;20606;-79
2024/01/22 03:20:47;;;;;;;9.00;7.03;;;5.80;1.00;;;;;;5095801;28;20203;-79
2024/01/22 03:23:13;;;;;;;8.70;6.70;;;5.80;1.00;;;;;;5093958;28;20199;-79
2024/01/22 03:25:38;;;;;;;10.20;7.00;;;5.80;1.00;;;;;;5095618;28;20218;-73
2024/01/22 03:28:04;;;;;;;7.97;5.77;;;5.80;1.00;;;;;;5077886;28;20226;-72
2024/01/22 03:30:30;;;;;;;9.07;6.50;;;5.80;1.00;;;;;;5095746;28;20585;-75
2024/01/22 03:32:56;;;;;;;13.20;6.90;;;5.80;1.00;;;;;;5076679;28;20446;-79
2024/01/22 03:35:21;;;;;;;8.10;6.57;;;5.90;1.00;;;;;;5095632;28;20309;-74
2024/01/22 03:37:48;;;;;;;8.33;6.43;;;5.90;1.00;;;;;;5095476;28;20177;-78
2024/01/22 03:40:14;;;;;;;8.43;6.40;;;5.90;1.00;;;;;;5095460;28;20279;-73
2024/01/22 03:42:40;;;;;;;6.70;5.30;;;5.90;1.00;;;;;;5095320;28;20410;-77
2024/01/22 03:45:06;;;;;;;7.47;6.20;;;5.90;1.00;;;;;;5094570;28;20427;-72
2024/01/22 03:47:32;;;;;;;5.77;5.13;;;5.90;1.00;;;;;;5095363;28;20169;-80
2024/01/22 03:49:57;;;;;;;11.80;6.03;;;5.90;1.00;;;;;;5077191;28;20467;-80
2024/01/22 03:52:23;;;;;;;6.23;4.67;;;5.90;5.50;;;;;;5095383;28;20174;-80
2024/01/22 03:54:49;;;;;;;6.60;5.83;;;5.90;29.30;;;;;;5094271;28;20185;-79
2024/01/22 03:57:14;;;;;;;6.10;5.60;;;5.90;49.90;;;;;;5095310;28;20178;-70
2024/01/22 03:59:42;;;;;;;8.23;4.93;;;6.00;78.20;;;;;;5095092;28;20192;-77
2024/01/22 04:02:08;;;;;;;6.63;5.97;;;5.90;97.90;;;;;;5095109;28;20507;-77
2024/01/22 04:04:34;;;;;;;6.10;5.60;;;6.00;99.90;;;;;;5093668;28;20553;-76
2024/01/22 04:06:59;;;;;;;7.60;6.30;;;5.90;99.90;;;;;;5095099;28;20584;-70
2024/01/22 04:09:25;;;;;;;6.33;4.83;;;5.90;99.90;;;;;;5076795;28;20413;-69
2024/01/22 04:11:51;;;;;;;7.20;5.03;;;6.00;99.90;;;;;;5094840;28;20219;-77
2024/01/22 04:14:16;;;;;;;6.60;5.57;;;6.00;99.90;;;;;;5093314;28;20204;-69
2024/01/22 04:16:44;;;;;;;8.10;5.97;;;6.00;99.90;;;;;;5094872;28;20183;-75
2024/01/22 04:19:10;;;;;;;5.97;4.73;;;6.00;99.90;;;;;;5094726;28;20180;-75
2024/01/22 04:21:44;;;;;;;5.30;4.10;;;6.00;99.90;;;;;;5094732;28;20406;-74
2024/01/22 04:24:10;;;;;;;5.77;5.30;;;6.00;99.90;;;;;;5093608;28;20431;-69
2024/01/22 04:26:35;;;;;;;8.73;5.50;;;6.10;99.90;;;;;;5076768;28;20498;-76
2024/01/22 04:29:01;;;;;;;11.10;6.27;;;6.10;99.90;;;;;;5076726;28;20511;-75
2024/01/22 04:31:27;;;;;;;8.10;4.20;;;6.10;99.90;;;;;;5094573;28;20169;-78
2024/01/22 04:33:54;;;;;;;3.87;3.50;;;6.20;99.90;;;;;;5093591;28;20266;-69
2024/01/22 04:36:19;;;;;;;6.63;4.90;;;6.20;99.90;;;;;;5076135;28;20625;-69
2024/01/22 04:38:45;;;;;;;5.90;5.23;;;6.20;99.90;;;;;;5094408;28;20429;-68
2024/01/22 04:41:11;;;;;;;5.43;4.90;;;6.20;99.90;;;;;;5076146;28;20570;-70
2024/01/22 04:43:36;;;;;;;10.50;5.47;;;6.30;99.90;;;;;;5093397;28;20286;-78
2024/01/22 04:46:02;;;;;;;5.97;5.47;;;6.30;99.90;;;;;;5094247;28;20192;-69
2024/01/22 04:48:28;;;;;;;5.17;4.47;;;6.30;99.90;;;;;;5075745;28;20177;-69
2024/01/22 04:50:54;;;;;;;5.90;4.53;;;6.30;99.90;;;;;;5075956;28;20622;-69
2024/01/22 04:53:19;;;;;;;5.50;5.00;;;6.40;99.90;;;;;;5093357;28;20410;-69
2024/01/22 04:55:45;;;;;;;5.23;4.73;;;6.40;99.90;;;;;;5076143;28;20189;-77
2024/01/22 04:58:11;;;;;;;5.33;4.80;;;6.40;1.00;;;;;;5094001;28;20537;-76
2024/01/22 05:00:36;;;;;;;5.20;4.70;;;6.40;1.00;;;;;;5093843;28;20634;-69
2024/01/22 05:03:04;;;;;;;5.03;4.53;;;6.40;1.00;;;;;;5093125;28;20248;-70
2024/01/22 05:05:32;;;;;;;6.07;4.33;;;6.50;1.00;;;;;;5075642;28;20209;-75
2024/01/22 05:07:57;;;;;;;5.30;4.80;;;6.50;1.00;;;;;;5093970;28;20799;-69
2024/01/22 05:10:23;;;;;;;3.70;3.40;;;6.50;1.00;;;;;;5093800;28;20457;-73
2024/01/22 05:12:48;;;;;;;5.33;3.77;;;6.60;1.00;;;;;;5093185;28;20188;-77
2024/01/22 05:15:15;;;;;;;7.30;4.53;;;6.60;1.00;;;;;;5093521;28;20247;-69
2024/01/22 05:17:41;;;;;;;5.07;4.63;;;6.60;1.00;;;;;;5093782;28;20161;-69
2024/01/22 05:20:08;;;;;;;4.80;4.40;;;6.70;1.00;;;;;;5093591;28;20451;-70
2024/01/22 05:22:34;;;;;;;11.43;5.63;;;6.70;1.00;;;;;;5093515;28;20434;-72
2024/01/22 05:25:00;;;;;;;8.80;4.93;;;6.70;1.00;;;;;;5074698;28;20838;-76
2024/01/22 05:27:26;;;;;;;4.30;4.00;;;6.80;1.00;;;;;;5074629;28;20494;-70
2024/01/22 05:29:51;;;;;;;4.73;4.33;;;6.80;1.00;;;;;;5093653;28;20173;-69
2024/01/22 05:32:17;;;;;;;6.57;3.90;;;6.90;1.00;;;;;;5093568;28;20642;-70
2024/01/22 05:34:43;;;;;;;4.30;3.90;;;7.00;1.00;;;;;;5092342;28;20561;-69
2024/01/22 05:37:08;;;;;;;4.27;3.97;;;7.00;1.00;;;;;;5093530;28;20653;-69
2024/01/22 05:39:36;;;;;;;4.90;4.60;;;7.00;1.00;;;;;;5093379;28;20213;-69
2024/01/22 05:42:03;;;;;;;6.40;5.43;;;7.10;1.00;;;;;;5093448;28;20162;-70
2024/01/22 05:44:29;;;;;;;9.90;4.27;;;7.10;1.00;;;;;;5092470;28;20502;-70
2024/01/22 05:46:55;;;;;;;5.73;4.57;;;7.20;1.00;;;;;;5075505;28;20503;-77
2024/01/22 05:49:20;;;;;;;5.47;4.43;;;7.20;1.00;;;;;;5075249;28;20266;-77
2024/01/22 05:51:47;;;;;;;5.17;4.80;;;7.30;1.00;;;;;;5093341;28;20915;-78
2024/01/22 05:54:13;;;;;;;4.97;4.57;;;7.40;1.00;;;;;;5092413;28;20281;-71
2024/01/22 05:56:39;;;;;;;7.33;5.67;;;7.50;1.00;;;;;;5075540;28;20768;-70
2024/01/22 05:59:05;;;;;;;4.30;3.93;;;7.50;1.00;;;;;;5093177;28;20494;-70
2024/01/22 06:01:31;;;;;;;5.77;4.10;;;7.50;1.00;;;;;;5093315;28;20591;-70
2024/01/22 06:03:57;;;;;;;6.40;5.53;;;7.60;1.00;;;;;;5092202;28;20407;-69
2024/01/22 06:06:22;;;;;;;5.10;4.50;;;7.60;1.00;;;;;;5093067;28;20181;-79
2024/01/22 06:08:49;;;;;;;5.37;4.97;;;7.70;1.00;;;;;;5093131;28;20499;-71
2024/01/22 06:11:17;;;;;;;5.83;5.30;;;7.70;1.00;;;;;;5075264;28;20209;-78
2024/01/22 06:13:43;;;;;;;5.20;4.80;;;7.80;1.00;;;;;;5074100;28;20447;-77
2024/01/22 06:16:12;;;;;;;8.30;5.57;;;7.80;1.00;;;;;;5075289;28;20450;-77
2024/01/22 06:18:40;;;;;;;5.27;4.87;;;7.80;1.00;;;;;;5093000;28;20439;-75
2024/01/22 06:21:06;;;;;;;5.10;4.77;;;7.90;1.00;;;;;;5092862;28;20530;-78
2024/01/22 06:23:32;;;;;;;5.80;5.40;;;7.90;1.00;;;;;;5092154;28;20392;-76
2024/01/22 06:25:59;;;;;;;6.27;5.67;;;7.90;1.00;;;;;;5093023;28;20455;-72
2024/01/22 06:28:26;;;;;;;5.50;5.00;;;7.90;1.00;;;;;;5093012;28;20396;-70
2024/01/22 06:30:53;;;;;;;5.47;5.07;;;7.90;1.00;;;;;;5075033;28;20404;-71
2024/01/22 06:33:19;;;;;;;5.00;4.60;;;8.00;1.00;;;;;;5092008;28;20419;-77
2024/01/22 06:35:46;;;;;;;5.63;4.53;;;8.10;1.00;;;;;;5092889;28;20783;-81
2024/01/22 06:38:12;;;;;;;8.37;5.47;;;8.10;1.00;;;;;;5076941;28;20814;-77
2024/01/22 06:40:38;;;;;;;5.33;4.60;;;8.20;1.00;;;;;;5096725;28;20417;-78
2024/01/22 06:43:04;;;;;;;5.47;4.97;;;8.20;1.00;;;;;;5095683;28;20395;-76
2024/01/22 06:45:30;;;;;;;5.23;4.77;;;8.20;1.00;;;;;;5096401;28;20184;-75
2024/01/22 06:47:56;;;;;;;4.90;4.50;;;8.30;1.00;;;;;;5095545;28;20400;-72
2024/01/22 06:50:22;;;;;;;4.63;4.27;;;8.20;1.00;;;;;;5078195;28;20232;-79
2024/01/22 06:52:48;;;;;;;4.83;4.50;;;8.30;1.00;;;;;;5096003;28;20638;-77
2024/01/22 06:55:15;;;;;;;5.27;4.53;;;8.30;1.00;;;;;;5096007;28;20514;-72
2024/01/22 06:57:40;;;;;;;4.07;3.87;;;8.30;1.00;;;;;;5078024;28;20775;-72
2024/01/22 07:00:07;;;;;;;4.57;4.23;;;8.30;1.00;;;;;;5096216;28;20532;-80
2024/01/22 07:02:38;;;;;;;5.60;4.20;;;8.40;1.00;;;;;;5096307;28;20605;-78
2024/01/22 07:05:05;;;;;;;3.77;3.57;;;8.40;1.00;;;;;;5095214;28;20443;-75
2024/01/22 07:07:30;;;;;;;7.57;5.37;;;8.40;1.00;;;;;;5096075;28;20400;-78
2024/01/22 07:09:56;;;;;;;5.50;5.10;;;8.40;1.00;;;;;;5094845;28;20761;-72
2024/01/22 07:12:22;;;;;;;7.90;5.73;;;8.40;1.00;;;;;;5096104;28;20400;-73
2024/01/22 07:14:48;;;;;;;4.13;3.70;;;8.40;1.00;;;;;;5094755;28;20561;-71
2024/01/22 07:17:21;;;;;;;4.67;4.10;;;8.40;1.00;;;;;;5078069;28;20496;-70
2024/01/22 07:19:47;;;;;;;4.90;4.17;;;8.50;1.00;;;;;;5077638;28;20440;-76
2024/01/22 07:22:13;;;;;;;4.83;4.43;;;8.50;1.00;;;;;;5095871;28;20401;-71
2024/01/22 07:24:39;;;;;;;5.60;4.87;;;8.50;1.00;;;;;;5095050;28;20420;-74
2024/01/22 07:27:05;;;;;;;3.30;3.10;;;8.50;1.00;;;;;;5095810;28;20193;-70
2024/01/22 07:29:30;;;;;;;5.07;4.60;;;8.50;1.00;;;;;;5095627;28;20181;-76
2024/01/22 07:31:56;;;;;;;4.30;3.90;;;8.60;1.00;;;;;;5077555;28;20428;-70
2024/01/22 07:34:22;;;;;;;4.30;4.07;;;8.60;1.00;;;;;;5094729;28;20265;-75
2024/01/22 07:36:48;;;;;;;4.07;3.87;;;8.70;1.00;;;;;;5095673;28;20403;-71
2024/01/22 07:39:14;;;;;;;4.97;4.47;;;8.70;1.00;;;;;;5095499;28;20450;-72
2024/01/22 07:41:40;;;;;;;5.90;4.90;;;8.70;1.00;;;;;;5095426;28;20413;-76
2024/01/22 07:44:06;;;;;;;5.63;5.13;;;8.80;1.00;;;;;;5094571;28;20241;-72
2024/01/22 07:46:32;;;;;;;5.00;4.60;;;8.80;1.00;;;;;;5095534;28;20242;-71
2024/01/22 07:48:57;;;;;;;3.73;3.53;;;8.90;1.00;;;;;;5094415;28;20499;-72
2024/01/22 07:51:23;;;;;;;5.27;4.57;;;8.90;1.00;;;;;;5077418;28;20809;-77
2024/01/22 07:53:49;;;;;;;5.67;4.93;;;8.90;1.00;;;;;;5094269;28;20652;-73
2024/01/22 07:56:15;;;;;;;5.30;5.00;;;8.90;1.00;;;;;;5095323;28;20162;-72
2024/01/22 07:58:41;;;;;;;5.30;4.90;;;8.90;1.00;;;;;;5095209;28;20967;-72
2024/01/22 08:01:07;;;;;;;4.83;4.50;;;9.00;1.00;;;;;;5095205;28;20724;-77
2024/01/22 08:03:34;;;;;;;5.27;4.87;;;8.90;1.00;;;;;;5076052;28;20436;-77
2024/01/22 08:06:00;;;;;;;6.20;5.70;;;9.00;1.00;;;;;;5094799;28;20944;-76
2024/01/22 08:08:27;;;;;;;5.37;4.87;;;9.00;1.00;;;;;;5094749;28;20481;-73
2024/01/22 08:10:52;;;;;;;5.50;5.07;;;9.00;1.00;;;;;;5094939;28;20177;-75
2024/01/22 08:13:18;;;;;;;5.30;4.90;;;9.00;1.00;;;;;;5094063;28;20398;-78
2024/01/22 08:15:44;;;;;;;5.17;4.93;;;9.00;1.00;;;;;;5094785;28;20182;-73
2024/01/22 08:18:11;;;;;;;4.43;4.13;;;9.00;1.00;;;;;;5094792;28;20165;-77
2024/01/22 08:20:36;;;;;;;4.90;4.50;;;9.00;1.00;;;;;;5094818;28;20426;-77
2024/01/22 08:23:02;;;;;;;5.47;5.17;;;9.00;1.00;;;;;;5093815;28;20456;-74
2024/01/22 08:25:28;;;;;;;4.87;4.57;;;9.00;1.00;;;;;;5094619;28;20240;-77
2024/01/22 08:27:58;;;;;;;4.70;4.40;;;9.10;1.00;;;;;;5076421;28;20178;-78
2024/01/22 08:30:24;;;;;;;5.97;4.70;;;9.10;1.00;;;;;;5076370;28;20176;-76
2024/01/22 08:32:51;;;;;;;5.23;4.83;;;9.20;1.00;;;;;;5093765;28;20969;-78
2024/01/22 08:35:18;;;;;;;3.67;3.47;;;9.20;1.00;;;;;;5094424;28;20405;-76
2024/01/22 08:37:47;;;;;;;4.37;4.00;;;9.20;1.00;;;;;;5094451;28;20429;-73
2024/01/22 08:40:17;;;;;;;11.20;4.00;;;9.20;1.00;;;;;;5094156;28;20506;-75
2024/01/22 08:42:45;;;;;;;4.93;4.60;;;9.20;1.00;;;;;;5094205;28;20404;-77
2024/01/22 08:45:11;;;;;;;4.30;3.90;;;9.20;1.00;;;;;;5093587;28;20418;-78
2024/01/22 08:47:37;;;;;;;3.47;3.27;;;9.30;1.00;;;;;;5094240;28;20414;-79
2024/01/22 08:50:04;;;;;;;5.13;4.73;;;9.30;1.00;;;;;;5076043;28;20177;-71
2024/01/22 08:52:30;;;;;;;3.53;3.33;;;9.30;1.00;;;;;;5075877;28;20179;-76
2024/01/22 08:54:56;;;;;;;5.80;4.13;;;9.30;1.00;;;;;;5093110;28;20457;-70
2024/01/22 08:57:22;;;;;;;4.10;3.90;;;9.30;1.00;;;;;;5094070;28;20391;-77
2024/01/22 08:59:48;;;;;;;3.93;3.63;;;9.30;1.00;;;;;;5094028;28;20190;-76
2024/01/22 09:02:14;;;;;;;3.57;3.37;;;9.30;1.00;;;;;;5093790;28;20394;-77
2024/01/22 09:04:40;;;;;;;4.30;3.90;;;9.30;1.00;;;;;;5092874;28;20468;-70
2024/01/22 09:07:06;;;;;;;4.27;4.07;;;9.30;1.00;;;;;;5093898;28;20444;-78
2024/01/22 09:09:31;;;;;;;8.50;4.37;;;9.40;1.00;;;;;;5093884;28;20853;-77
2024/01/22 09:11:57;;;;;;;3.87;3.50;;;9.30;1.00;;;;;;5093933;28;20545;-70
2024/01/22 09:14:23;;;;;;;3.47;3.27;;;9.40;1.00;;;;;;5092994;28;20196;-70
2024/01/22 09:16:48;;;;;;;4.50;3.40;;;9.40;1.00;;;;;;5093801;28;20211;-77
2024/01/22 09:19:14;;;;;;;3.07;2.87;;;9.50;1.00;;;;;;5093734;28;20172;-71
2024/01/22 09:21:40;;;;;;;2.50;2.30;;;9.50;1.00;;;;;;5093716;28;20169;-75
2024/01/22 09:24:05;;;;;;;2.33;2.23;;;9.60;1.00;;;;;;5092729;28;20187;-70
2024/01/22 09:26:31;;;;;;;4.10;2.53;;;9.70;1.00;;;;;;5093737;28;20176;-76
2024/01/22 09:28:57;;;;;;;3.80;1.97;;;9.70;1.00;;;;;;5093563;28;20628;-75
2024/01/22 09:31:23;;;;;;;3.63;2.90;;;9.70;1.00;;;;;;5093584;28;20525;-74
2024/01/22 09:33:51;;;;;;;2.23;2.03;;;9.60;1.00;;;;;;5074686;28;20173;-73
2024/01/22 09:36:17;;;;;;;4.23;2.33;;;9.60;1.00;;;;;;5093477;28;20760;-70
2024/01/22 09:38:43;;;;;;;5.13;2.43;;;9.50;1.00;;;;;;5092844;28;20517;-74
2024/01/22 09:41:09;;;;;;;3.13;2.53;;;9.50;1.00;;;;;;5092481;28;20936;-71
2024/01/22 09:43:37;;;;;;;7.00;2.33;;;9.50;1.00;;;;;;5074498;28;20397;-70
2024/01/22 09:46:03;;;;;;;7.00;2.40;;;9.40;1.00;;;;;;5075313;28;20504;-70
2024/01/22 09:48:32;;;;;;;8.93;2.60;;;9.40;1.00;;;;;;5093334;28;20411;-71
2024/01/22 09:51:00;;;;;;;3.50;2.07;;;9.40;1.00;;;;;;5093362;28;20910;-71
2024/01/22 09:53:28;;;;;;;23.33;3.97;;;9.30;1.00;;;;;;5092537;28;20769;-74
2024/01/22 09:55:56;;;;;;;5.67;2.90;;;9.30;1.00;;;;;;5093281;28;20405;-75
2024/01/22 09:58:27;;;;;;;11.30;3.07;;;9.30;1.00;;;;;;5093413;28;20381;-74
2024/01/22 10:00:53;;;;;;;10.90;3.27;;;9.30;1.00;;;;;;5093102;28;20433;-70
2024/01/22 10:03:20;;;;;;;9.80;3.27;;;9.40;1.00;;;;;;5074431;28;20493;-71
2024/01/22 10:05:48;;;;;;;7.37;3.30;;;9.30;1.00;;;;;;5093086;28;20445;-70
2024/01/22 10:08:14;;;;;;;21.33;3.93;;;9.40;1.00;;;;;;5093232;28;20399;-74
2024/01/22 10:10:40;;;;;;;12.03;3.57;;;9.30;1.00;;;;;;5075182;28;20464;-70
2024/01/22 10:13:08;;;;;;;8.83;3.43;;;9.30;1.00;;;;;;5094073;28;20405;-75
2024/01/22 10:15:37;;;;;;;11.40;4.50;;;9.30;1.00;;;;;;5097090;28;20680;-74
2024/01/22 10:18:13;;;;;;;7.20;3.90;;;9.40;1.00;;;;;;5097131;28;20403;-75
2024/01/22 10:20:39;;;;;;;14.27;4.80;;;9.50;1.00;;;;;;5097072;28;20534;-70
2024/01/22 10:23:05;;;;;;;14.30;4.13;;;9.50;1.00;;;;;;5077919;28;20432;-74
2024/01/22 10:25:31;;;;;;;12.37;3.70;;;9.60;1.00;;;;;;5097044;28;20401;-73
2024/01/22 10:28:17;;;;;;;17.13;4.50;;;9.60;1.00;;;;;;5094964;28;20436;-76
2024/01/22 10:31:00;;;;;;;18.40;5.10;;;9.60;1.00;;;;;;5096668;28;20378;-74
2024/01/22 10:33:26;;;;;;;15.43;4.67;;;9.60;1.00;;;;;;5077849;28;20377;-69
2024/01/22 10:35:52;;;;;;;24.57;5.33;;;9.50;1.00;;;;;;5096836;28;20415;-74
2024/01/22 10:38:23;;;;;;;20.70;5.10;;;9.50;1.00;;;;;;5078586;28;20177;-75
2024/01/22 10:40:48;;;;;;;19.40;5.40;;;9.50;1.00;;;;;;5096676;28;20188;-69
2024/01/22 10:43:27;;;;;;;21.40;5.27;;;9.40;1.00;;;;;;5095646;28;20453;-69
2024/01/22 10:45:54;;;;;;;17.87;4.63;;;9.40;99.90;;;;;;5096485;28;20237;-69
2024/01/22 10:48:25;;;;;;;24.87;5.13;;;9.40;99.90;;;;;;5096637;28;20380;-75
2024/01/22 10:50:51;;;;;;;17.03;4.40;;;9.30;99.90;;;;;;5096586;28;20449;-75
2024/01/22 10:53:19;;;;;;;18.60;4.47;;;9.30;99.90;;;;;;5077375;28;20384;-75
2024/01/22 10:55:57;;;;;;;12.83;3.57;;;9.30;99.90;;;;;;5096331;28;20433;-75
2024/01/22 10:58:27;;;;;;;23.53;5.63;;;9.30;99.90;;;;;;5096566;28;20376;-69
2024/01/22 11:00:57;;;;;;;20.87;4.93;;;9.30;99.90;;;;;;5078201;28;20461;-75
2024/01/22 11:03:27;;;;;;;27.90;4.77;;;9.30;99.90;;;;;;5095192;28;20437;-69
2024/01/22 11:05:57;;;;;;;18.43;5.43;;;9.30;99.90;;;;;;5077889;28;20956;-69
2024/01/22 11:08:27;;;;;;;15.90;4.70;;;9.40;99.90;;;;;;5096121;28;20435;-75
2024/01/22 11:10:56;;;;;;;19.20;5.47;;;9.40;99.90;;;;;;5078389;28;20410;-75
2024/01/22 11:13:22;;;;;;;16.00;3.73;;;9.50;99.90;;;;;;5095159;28;20511;-77
2024/01/22 11:15:47;;;;;;;18.60;4.77;;;9.50;99.90;;;;;;5095953;28;20487;-76
2024/01/22 11:18:13;;;;;;;22.83;4.53;;;9.40;99.90;;;;;;5095755;28;20259;-69
2024/01/22 11:20:39;;;;;;;20.47;4.50;;;9.30;99.90;;;;;;5095941;28;20240;-76
2024/01/22 11:23:08;;;;;;;23.93;6.53;;;9.30;99.90;;;;;;5094878;28;20164;-71
2024/01/22 11:25:34;;;;;;;22.30;6.60;;;9.30;99.90;;;;;;5094550;28;20177;-70
2024/01/22 11:28:01;;;;;;;7.60;3.67;;;9.20;99.90;;;;;;5095892;28;20395;-77
2024/01/22 11:30:28;;;;;;;18.53;4.70;;;9.30;99.90;;;;;;5095681;28;20421;-76
2024/01/22 11:32:54;;;;;;;25.93;4.10;;;9.30;99.90;;;;;;5094902;28;20403;-73
2024/01/22 11:35:33;;;;;;;17.60;5.10;;;9.40;99.90;;;;;;5095518;28;20426;-70
2024/01/22 11:37:59;;;;;;;16.43;5.93;;;9.40;80.80;;;;;;5095679;28;20172;-74
2024/01/22 11:40:46;;;;;;;19.50;6.57;;;9.40;43.10;;;;;;5095582;28;20467;-70
2024/01/22 11:43:12;;;;;;;13.90;4.63;;;9.40;12.30;;;;;;5078591;28;20937;-76
2024/01/22 11:45:38;;;;;;;19.93;4.90;;;9.50;1.00;;;;;;5095313;28;20837;-71
2024/01/22 11:48:15;;;;;;;23.40;5.40;;;9.40;1.00;;;;;;5077677;28;20472;-77
2024/01/22 11:50:41;;;;;;;19.63;6.10;;;9.50;1.00;;;;;;5095385;28;20176;-77
2024/01/22 11:53:06;;;;;;;24.87;5.20;;;9.40;1.00;;;;;;5094475;28;20385;-72
2024/01/22 11:55:32;;;;;;;18.07;4.27;;;9.40;1.00;;;;;;5095161;28;20477;-72
2024/01/22 11:57:58;;;;;;;13.03;3.63;;;9.50;1.00;;;;;;5095220;28;20173;-73
2024/01/22 12:00:24;;;;;;;30.83;5.97;;;9.50;1.00;;;;;;5095103;28;20198;-72
2024/01/22 12:02:51;;;;;;;17.40;4.57;;;9.50;1.00;;;;;;5094459;28;20160;-76
2024/01/22 12:05:17;;;;;;;18.10;4.87;;;9.60;1.00;;;;;;5094931;28;20442;-77
2024/01/22 12:07:47;;;;;;;20.50;4.90;;;9.70;1.00;;;;;;5094939;28;20427;-73
2024/01/22 12:10:23;;;;;;;11.37;4.93;;;9.60;1.00;;;;;;5095001;28;20403;-73
2024/01/22 12:12:50;;;;;;;8.50;4.17;;;9.70;1.00;;;;;;5094164;28;20382;-76
2024/01/22 12:15:16;;;;;;;10.00;4.20;;;9.60;1.00;;;;;;5094847;28;20416;-72
2024/01/22 12:17:46;;;;;;;23.73;6.40;;;9.60;1.00;;;;;;5076821;28;20416;-73
2024/01/22 12:20:12;;;;;;;12.50;4.90;;;9.60;1.00;;;;;;5094703;28;20648;-76
2024/01/22 12:22:37;;;;;;;11.90;4.10;;;9.60;1.00;;;;;;5087738;28;20744;-76
2024/01/22 12:25:07;;;;;;;19.73;5.23;;;9.60;1.00;;;;;;5073424;28;20394;-72
2024/01/22 12:27:33;;;;;;;20.13;5.23;;;9.60;1.00;;;;;;5056407;28;20286;-74
2024/01/22 12:30:05;;;;;;;10.73;4.47;;;9.60;99.90;;;;;;5074361;28;20414;-74
2024/01/22 12:32:31;;;;;;;12.13;5.10;;;9.60;99.90;;;;;;5074220;28;20385;-74
2024/01/22 12:35:01;;;;;;;5.83;3.30;;;9.60;99.90;;;;;;5072819;28;20821;-74
2024/01/22 12:37:34;;;;;;;25.67;6.30;;;9.60;99.90;;;;;;5074222;28;20884;-73
2024/01/22 12:40:16;;;;;;;11.43;4.57;;;9.50;99.90;;;;;;5073974;28;20439;-74
2024/01/22 12:42:49;;;;;;;15.43;3.77;;;9.50;99.90;;;;;;5074022;28;20373;-74
2024/01/22 12:45:19;;;;;;;11.23;4.40;;;9.40;99.90;;;;;;5055969;28;20431;-76
2024/01/22 12:47:46;;;;;;;22.50;4.00;;;9.40;99.90;;;;;;5056321;28;20383;-74
2024/01/22 12:50:14;;;;;;;19.07;4.90;;;9.50;99.90;;;;;;5055885;28;20391;-75
2024/01/22 12:52:41;;;;;;;18.73;4.70;;;9.60;99.90;;;;;;5073832;28;20375;-75
2024/01/22 12:55:08;;;;;;;16.90;4.83;;;9.70;99.90;;;;;;5073096;28;20510;-75
2024/01/22 12:57:35;;;;;;;17.30;4.37;;;9.70;99.90;;;;;;5055867;28;20412;-76